Time;durP1;ratioP1;P1;durP2;ratioP2;P2;SDS_P1;SDS_P2;PMS_P1;PMS_P2;Temp;Humidity;BMP_temperature;BMP_pressure;BME280_temperature;BME280_humidity;BME280_pressure;Samples;Min_cycle;Max_cycle;Signal;HPM_P1;HPM_P2
2021/08/29 00:01:53;;;;;;;4.30;2.88;;;;;;;22.53;65.43;99553.63;4958584;28;20033;-73
2021/08/29 00:04:19;;;;;;;3.00;2.38;;;;;;;22.49;66.05;99548.06;4958428;28;20030;-72
2021/08/29 00:06:44;;;;;;;4.40;2.90;;;;;;;22.44;66.57;99553.53;4958358;28;20126;-71
2021/08/29 00:09:10;;;;;;;2.90;2.47;;;;;;;22.31;66.77;99547.88;4958372;28;20030;-73
2021/08/29 00:11:36;;;;;;;4.80;2.78;;;;;;;22.22;67.07;99547.81;4958607;28;20157;-73
2021/08/29 00:14:02;;;;;;;3.53;2.50;;;;;;;22.18;67.28;99547.16;4958204;28;20031;-73
2021/08/29 00:16:28;;;;;;;2.92;2.67;;;;;;;22.14;67.71;99541.59;4958139;28;20478;-73
2021/08/29 00:18:56;;;;;;;3.38;2.72;;;;;;;22.15;67.62;99542.38;4957673;28;20130;-73
2021/08/29 00:21:21;;;;;;;5.72;2.42;;;;;;;22.11;67.60;99542.53;4958085;28;20457;-73
2021/08/29 00:23:47;;;;;;;4.18;2.60;;;;;;;22.17;67.80;99539.91;4958181;28;20065;-73
2021/08/29 00:26:13;;;;;;;4.97;2.65;;;;;;;22.09;67.66;99547.03;4958177;28;20038;-72
2021/08/29 00:28:38;;;;;;;4.30;2.40;;;;;;;22.05;68.16;99540.69;4958580;28;20122;-73
2021/08/29 00:31:04;;;;;;;3.22;2.53;;;;;;;21.94;68.80;99539.03;4957883;28;20039;-73
2021/08/29 00:33:30;;;;;;;2.55;2.35;;;;;;;21.88;69.24;99542.88;4958076;28;20058;-74
2021/08/29 00:35:56;;;;;;;5.90;2.80;;;;;;;21.80;69.26;99536.66;4958021;28;20027;-74
2021/08/29 00:38:22;;;;;;;5.47;2.60;;;;;;;21.77;68.88;99528.28;4958342;28;20031;-73
2021/08/29 00:40:49;;;;;;;3.40;2.78;;;;;;;21.78;68.58;99536.31;4958422;28;20034;-74
2021/08/29 00:43:15;;;;;;;2.28;2.15;;;;;;;21.82;68.86;99536.19;4957490;28;20069;-73
2021/08/29 00:45:42;;;;;;;5.03;3.03;;;;;;;21.96;67.44;99541.41;4958096;28;20066;-73
2021/08/29 00:48:09;;;;;;;6.05;3.42;;;;;;;21.92;67.17;99535.84;4957858;28;20027;-72
2021/08/29 00:50:35;;;;;;;3.22;2.88;;;;;;;21.92;67.35;99537.88;4958102;28;20430;-73
2021/08/29 00:53:05;;;;;;;3.35;2.85;;;;;;;21.95;66.73;99534.94;4957577;28;20027;-72
2021/08/29 00:55:31;;;;;;;3.95;2.67;;;;;;;21.96;66.66;99532.91;4957614;28;20097;-73
2021/08/29 00:57:56;;;;;;;6.65;2.45;;;;;;;22.01;66.62;99532.31;4957442;28;20038;-73
2021/08/29 01:00:22;;;;;;;5.95;3.25;;;;;;;22.03;66.13;99531.84;4957961;28;20041;-73
2021/08/29 01:02:48;;;;;;;3.13;2.60;;;;;;;21.91;66.06;99537.09;4957557;28;20423;-72
2021/08/29 01:05:23;;;;;;;3.40;3.10;;;;;;;21.83;66.16;99537.78;4957625;28;20039;-72
2021/08/29 01:08:05;;;;;;;6.95;4.55;;;;;;;21.80;66.70;99528.16;4958378;28;20034;-71
2021/08/29 01:10:40;;;;;;;4.57;3.72;;;;;;;21.78;66.42;99536.31;4975200;28;20059;-73
2021/08/29 01:13:09;;;;;;;8.25;3.75;;;;;;;21.68;66.40;99531.81;4974837;28;20038;-73
2021/08/29 01:15:36;;;;;;;4.60;4.07;;;;;;;21.82;66.72;99542.66;4957735;28;20095;-72
2021/08/29 01:18:02;;;;;;;7.00;3.85;;;;;;;21.88;66.83;99540.81;4957441;28;20026;-72
2021/08/29 01:20:30;;;;;;;4.65;3.50;;;;;;;21.77;64.30;99536.78;4957415;28;20082;-72
2021/08/29 01:22:58;;;;;;;6.38;3.88;;;;;;;21.77;64.48;99537.56;4957345;28;20027;-74
2021/08/29 01:25:34;;;;;;;4.82;2.95;;;;;;;21.76;64.51;99535.19;4941625;28;20103;-74
2021/08/29 01:28:07;;;;;;;4.00;3.60;;;;;;;21.75;64.46;99527.94;4958204;28;20033;-74
2021/08/29 01:30:33;;;;;;;5.07;3.80;;;;;;;21.78;64.71;99535.53;4957892;28;20027;-72
2021/08/29 01:33:00;;;;;;;5.45;3.88;;;;;;;21.77;64.61;99539.59;4957871;28;20027;-74
2021/08/29 01:35:26;;;;;;;7.90;3.63;;;;;;;21.71;65.29;99528.06;4957312;28;20027;-72
2021/08/29 01:37:54;;;;;;;4.03;3.60;;;;;;;21.71;62.84;99522.41;4974906;28;20027;-73
2021/08/29 01:40:20;;;;;;;4.32;3.92;;;;;;;21.75;64.30;99528.75;4957538;28;20359;-72
2021/08/29 01:42:47;;;;;;;5.38;3.75;;;;;;;21.72;63.70;99526.81;4957175;28;20109;-72
2021/08/29 01:45:15;;;;;;;4.70;3.58;;;;;;;21.74;64.94;99530.00;4956941;28;20113;-73
2021/08/29 01:47:40;;;;;;;11.05;4.88;;;;;;;21.69;65.63;99530.56;4961880;28;20045;-73
2021/08/29 01:50:07;;;;;;;4.80;3.92;;;;;;;21.71;65.48;99528.06;4961342;28;20390;-73
2021/08/29 01:52:33;;;;;;;4.93;3.35;;;;;;;21.67;65.70;99527.38;4960990;28;20033;-73
2021/08/29 01:54:58;;;;;;;5.20;3.50;;;;;;;21.58;67.42;99527.28;4960930;28;20026;-72
2021/08/29 01:57:24;;;;;;;4.20;3.47;;;;;;;21.63;67.85;99521.06;4961392;28;20127;-73
2021/08/29 01:59:50;;;;;;;6.07;3.45;;;;;;;21.55;68.34;99522.53;4961170;28;20035;-73
2021/08/29 02:02:18;;;;;;;7.43;3.85;;;;;;;21.52;67.81;99510.09;4960802;28;20520;-74
2021/08/29 02:04:44;;;;;;;4.55;3.97;;;;;;;21.53;67.54;99513.72;4961036;28;20031;-73
2021/08/29 02:07:18;;;;;;;6.95;3.63;;;;;;;21.55;67.17;99511.22;4961482;28;20033;-73
2021/08/29 02:09:49;;;;;;;5.75;3.85;;;;;;;21.60;66.90;99507.81;4960661;28;20023;-74
2021/08/29 02:12:16;;;;;;;18.55;12.43;;;;;;;21.68;68.07;99509.16;4960666;28;20039;-72
2021/08/29 02:14:52;;;;;;;50.47;35.40;;;;;;;21.67;67.97;99507.56;4960844;28;20544;-72
2021/08/29 02:17:19;;;;;;;41.15;31.77;;;;;;;21.67;67.97;99507.56;4978187;28;20582;-72
2021/08/29 02:19:47;;;;;;;17.80;14.35;;;;;;;21.57;68.14;99508.72;4960134;28;20182;-73
2021/08/29 02:22:13;;;;;;;9.10;7.22;;;;;;;21.53;68.22;99508.06;4960243;28;20023;-72
2021/08/29 02:24:41;;;;;;;22.95;18.23;;;;;;;21.64;69.24;99514.94;4960635;28;20062;-74
2021/08/29 02:27:13;;;;;;;13.50;12.10;;;;;;;21.59;68.30;99517.56;4960318;28;20031;-72
2021/08/29 02:29:40;;;;;;;13.82;10.77;;;;;;;21.54;68.17;99510.41;4960334;28;20034;-72
2021/08/29 02:32:09;;;;;;;14.40;9.90;;;;;;;21.58;68.32;99515.97;4960809;28;20113;-72
2021/08/29 02:34:36;;;;;;;8.18;7.07;;;;;;;21.58;67.80;99504.66;4960391;28;20104;-73
2021/08/29 02:37:02;;;;;;;6.55;5.95;;;;;;;21.55;67.69;99511.22;4960848;28;20030;-72
2021/08/29 02:39:30;;;;;;;6.95;6.28;;;;;;;21.52;67.45;99503.63;4959947;28;20138;-73
2021/08/29 02:41:57;;;;;;;4.22;3.75;;;;;;;21.53;66.80;99505.22;4960547;28;20026;-73
2021/08/29 02:44:24;;;;;;;3.38;3.08;;;;;;;21.36;67.10;99484.72;4960578;28;20378;-71
2021/08/29 02:46:51;;;;;;;5.55;4.38;;;;;;;21.43;67.21;99507.94;4960301;28;20030;-72
2021/08/29 02:49:24;;;;;;;4.90;4.50;;;;;;;21.52;67.77;99506.44;4960267;28;20041;-71
2021/08/29 02:51:54;;;;;;;4.10;3.72;;;;;;;21.47;67.26;99504.22;4960163;28;20386;-72
2021/08/29 02:54:20;;;;;;;5.43;3.15;;;;;;;21.48;67.20;99500.91;4960097;28;20035;-73
2021/08/29 02:56:52;;;;;;;3.55;2.90;;;;;;;21.41;67.77;99498.31;4959531;28;20033;-73
2021/08/29 02:59:19;;;;;;;4.00;3.35;;;;;;;21.29;68.03;99497.03;4959846;28;20027;-73
2021/08/29 03:01:44;;;;;;;5.35;3.58;;;;;;;21.29;68.43;99505.53;4960232;28;20023;-73
2021/08/29 03:04:10;;;;;;;3.97;2.97;;;;;;;21.24;68.39;99500.44;4959734;28;20508;-73
2021/08/29 03:06:36;;;;;;;4.82;3.22;;;;;;;21.11;69.00;99499.63;4959673;28;20038;-73
2021/08/29 03:09:02;;;;;;;3.85;3.33;;;;;;;20.95;69.27;99485.59;4959884;28;20035;-72
2021/08/29 03:11:28;;;;;;;4.90;4.40;;;;;;;21.01;69.49;99507.22;4959564;28;20117;-74
2021/08/29 03:13:54;;;;;;;5.38;4.57;;;;;;;20.92;69.65;99507.06;4959849;28;20093;-72
2021/08/29 03:16:20;;;;;;;4.25;3.88;;;;;;;20.97;68.93;99500.84;4959975;28;20469;-73
2021/08/29 03:18:47;;;;;;;6.57;4.38;;;;;;;20.89;68.87;99497.47;4959300;28;20189;-72
2021/08/29 03:21:13;;;;;;;9.30;4.55;;;;;;;20.88;69.21;99495.09;4959375;28;20027;-74
2021/08/29 03:23:38;;;;;;;6.70;4.93;;;;;;;20.89;69.93;99500.28;4959137;28;20050;-72
2021/08/29 03:26:04;;;;;;;10.70;9.35;;;;;;;20.86;68.94;99506.84;4959056;28;20030;-73
2021/08/29 03:28:30;;;;;;;11.93;10.93;;;;;;;20.80;69.08;99502.97;4959642;28;20033;-72
2021/08/29 03:30:56;;;;;;;8.73;7.50;;;;;;;20.87;68.41;99493.50;4959179;28;20041;-72
2021/08/29 03:33:24;;;;;;;11.75;7.35;;;;;;;20.85;68.56;99501.63;4959001;28;20031;-73
2021/08/29 03:35:52;;;;;;;6.70;5.82;;;;;;;20.76;68.87;99502.28;4958837;28;20031;-73
2021/08/29 03:38:22;;;;;;;7.07;6.43;;;;;;;20.66;69.51;99497.75;4958625;28;20070;-73
2021/08/29 03:40:54;;;;;;;7.40;6.70;;;;;;;20.71;69.68;99500.00;4976293;28;20110;-74
2021/08/29 03:43:19;;;;;;;10.95;9.55;;;;;;;20.67;69.58;99494.47;4976321;28;20034;-72
2021/08/29 03:45:46;;;;;;;9.25;8.35;;;;;;;20.77;69.52;99497.44;4958675;28;20042;-72
2021/08/29 03:48:12;;;;;;;7.82;7.13;;;;;;;20.73;69.35;99502.41;4959184;28;20042;-72
2021/08/29 03:50:38;;;;;;;5.97;5.38;;;;;;;20.71;69.52;99504.88;4958874;28;20154;-72
2021/08/29 03:53:05;;;;;;;5.45;4.78;;;;;;;20.71;69.48;99500.00;4959111;28;20108;-71
2021/08/29 03:55:31;;;;;;;5.13;4.32;;;;;;;20.68;69.31;99495.28;4958719;28;20034;-73
2021/08/29 03:57:57;;;;;;;4.97;3.90;;;;;;;20.70;69.52;99494.81;4958995;28;20137;-73
2021/08/29 04:00:24;;;;;;;4.28;3.85;;;;;;;20.66;69.89;99497.75;4958594;28;20117;-73
2021/08/29 04:02:50;;;;;;;4.63;3.70;;;;;;;20.63;70.18;99510.75;4958653;28;20605;-74
2021/08/29 04:05:16;;;;;;;4.50;3.95;;;;;;;20.72;70.56;99512.94;4958487;28;20110;-73
2021/08/29 04:07:46;;;;;;;5.45;4.93;;;;;;;20.60;69.77;99508.00;4958447;28;20375;-72
2021/08/29 04:10:15;;;;;;;7.13;4.60;;;;;;;20.72;70.29;99512.13;4958473;28;20042;-73
2021/08/29 04:12:43;;;;;;;5.50;4.30;;;;;;;20.75;69.80;99514.06;4958661;28;20125;-73
2021/08/29 04:15:11;;;;;;;9.00;3.90;;;;;;;20.70;69.72;99509.75;4976280;28;20031;-72
2021/08/29 04:17:37;;;;;;;6.65;4.45;;;;;;;20.80;68.54;99513.50;4958567;28;20137;-71
2021/08/29 04:20:04;;;;;;;4.22;3.90;;;;;;;20.83;68.88;99516.22;4957832;28;20058;-72
2021/08/29 04:22:30;;;;;;;5.43;3.88;;;;;;;20.90;68.77;99518.84;4958094;28;20027;-72
2021/08/29 04:24:56;;;;;;;4.65;3.45;;;;;;;20.92;68.28;99521.22;4958035;28;20034;-72
2021/08/29 04:27:24;;;;;;;4.30;3.47;;;;;;;20.99;68.68;99525.88;4957950;28;20023;-72
2021/08/29 04:29:53;;;;;;;3.67;3.05;;;;;;;21.03;68.61;99520.88;4958685;28;20098;-72
2021/08/29 04:32:19;;;;;;;5.18;2.88;;;;;;;21.06;68.16;99528.47;4957812;28;20066;-73
2021/08/29 04:34:45;;;;;;;3.60;3.30;;;;;;;21.11;67.86;99523.06;4958672;28;20035;-73
2021/08/29 04:37:11;;;;;;;3.90;3.00;;;;;;;21.11;67.84;99525.09;4957848;28;20054;-72
2021/08/29 04:39:38;;;;;;;4.75;3.30;;;;;;;21.19;68.09;99535.72;4957872;28;20038;-72
2021/08/29 04:42:04;;;;;;;4.22;3.58;;;;;;;21.26;67.24;99531.13;4942013;28;20031;-73
2021/08/29 04:44:32;;;;;;;3.53;3.15;;;;;;;21.27;66.69;99533.47;4952497;28;20035;-74
2021/08/29 04:46:58;;;;;;;7.05;3.63;;;;;;;21.29;65.93;99528.16;4957884;28;20023;-72
2021/08/29 04:49:26;;;;;;;4.00;3.20;;;;;;;21.40;65.71;99534.28;4957810;28;20026;-72
2021/08/29 04:51:52;;;;;;;3.80;2.53;;;;;;;21.67;65.43;99541.53;4957903;28;20093;-72
2021/08/29 04:54:19;;;;;;;3.67;3.13;;;;;;;22.19;64.13;99537.41;4957725;28;20477;-72
2021/08/29 04:56:48;;;;;;;3.33;3.03;;;;;;;22.58;62.80;99546.53;4957952;28;20486;-72
2021/08/29 04:59:14;;;;;;;5.38;3.08;;;;;;;23.01;61.93;99545.78;4958517;28;20343;-73
2021/08/29 05:01:42;;;;;;;3.30;2.80;;;;;;;23.41;60.26;99551.50;4957697;28;20030;-71
2021/08/29 05:04:08;;;;;;;4.93;3.03;;;;;;;23.78;58.61;99551.69;4957449;28;20045;-73
2021/08/29 05:06:33;;;;;;;3.95;3.05;;;;;;;24.21;57.39;99550.66;4957714;28;20026;-72
2021/08/29 05:08:59;;;;;;;3.58;3.03;;;;;;;24.64;55.61;99545.19;4958038;28;20113;-72
2021/08/29 05:11:24;;;;;;;6.13;3.58;;;;;;;24.88;54.77;99540.44;4957838;28;20514;-72
2021/08/29 05:13:50;;;;;;;3.47;3.17;;;;;;;25.10;53.90;99548.00;4957455;28;20474;-72
2021/08/29 05:16:15;;;;;;;4.72;3.20;;;;;;;25.30;53.09;99542.53;4957485;28;20033;-73
2021/08/29 05:18:41;;;;;;;4.07;3.35;;;;;;;25.66;52.15;99553.00;4957388;28;20090;-72
2021/08/29 05:21:09;;;;;;;3.50;3.20;;;;;;;25.91;51.51;99563.22;4957246;28;20485;-71
2021/08/29 05:23:35;;;;;;;3.40;3.10;;;;;;;26.21;50.83;99554.81;4957568;28;20038;-73
2021/08/29 05:26:04;;;;;;;3.75;3.03;;;;;;;26.75;49.57;99552.81;4957372;28;20430;-72
2021/08/29 05:28:29;;;;;;;3.45;2.72;;;;;;;26.61;48.93;99558.00;4957244;28;20045;-73
2021/08/29 05:30:55;;;;;;;3.22;2.92;;;;;;;26.98;48.52;99557.66;4957591;28;20031;-74
2021/08/29 05:33:21;;;;;;;3.47;3.13;;;;;;;27.15;48.10;99549.41;4957264;28;20391;-73
2021/08/29 05:35:46;;;;;;;4.68;2.70;;;;;;;27.61;46.60;99555.38;4957141;28;20062;-74
2021/08/29 05:38:12;;;;;;;6.80;3.28;;;;;;;26.83;47.62;99546.22;4957006;28;20042;-72
2021/08/29 05:40:37;;;;;;;6.82;3.03;;;;;;;27.10;46.96;99559.44;4957017;28;20039;-73
2021/08/29 05:43:03;;;;;;;2.95;2.75;;;;;;;27.00;46.12;99555.09;4956919;28;20035;-72
2021/08/29 05:45:33;;;;;;;7.93;3.30;;;;;;;27.40;45.15;99559.44;4957533;28;20085;-71
2021/08/29 05:47:59;;;;;;;4.03;2.83;;;;;;;27.34;45.59;99550.78;4957346;28;20093;-72
2021/08/29 05:50:24;;;;;;;4.38;3.03;;;;;;;27.39;45.58;99552.16;4957327;28;20034;-72
2021/08/29 05:52:50;;;;;;;4.18;3.20;;;;;;;27.77;44.47;99556.16;4957339;28;20039;-73
2021/08/29 05:55:15;;;;;;;3.22;2.92;;;;;;;27.80;44.78;99569.44;4957009;28;20039;-72
2021/08/29 05:57:41;;;;;;;5.97;3.63;;;;;;;28.01;43.57;99551.06;4957476;28;20041;-73
2021/08/29 06:00:07;;;;;;;6.10;4.20;;;;;;;27.92;43.38;99556.91;4957003;28;20102;-71
2021/08/29 06:02:33;;;;;;;6.15;4.00;;;;;;;27.92;43.76;99559.78;4956643;28;20114;-73
2021/08/29 06:05:00;;;;;;;5.85;3.70;;;;;;;28.14;43.65;99562.16;4956936;28;20038;-72
2021/08/29 06:07:26;;;;;;;3.97;3.58;;;;;;;28.47;41.95;99558.97;4957489;28;20031;-72
2021/08/29 06:09:51;;;;;;;5.07;3.55;;;;;;;28.10;42.44;99567.28;4957172;28;20170;-72
2021/08/29 06:12:17;;;;;;;3.85;3.47;;;;;;;28.86;40.95;99568.00;4957187;28;20030;-72
2021/08/29 06:14:42;;;;;;;4.00;3.63;;;;;;;29.15;40.93;99569.91;4957114;28;20027;-72
2021/08/29 06:17:08;;;;;;;4.68;3.22;;;;;;;29.20;40.54;99574.09;4956993;28;20458;-71
2021/08/29 06:19:34;;;;;;;4.97;3.38;;;;;;;28.94;40.82;99568.38;4956484;28;20422;-73
2021/08/29 06:21:59;;;;;;;4.15;2.85;;;;;;;28.84;40.93;99575.53;4956663;28;20023;-72
2021/08/29 06:24:25;;;;;;;6.03;3.17;;;;;;;29.52;40.31;99565.53;4956729;28;20053;-73
2021/08/29 06:26:50;;;;;;;3.60;3.30;;;;;;;29.33;38.86;99570.84;4956986;28;20059;-73
2021/08/29 06:29:18;;;;;;;3.65;3.00;;;;;;;28.90;40.70;99573.50;4957041;28;20046;-72
2021/08/29 06:31:43;;;;;;;4.00;3.25;;;;;;;29.31;39.98;99568.47;4957311;28;20023;-71
2021/08/29 06:34:09;;;;;;;3.00;2.80;;;;;;;29.36;40.07;99570.59;4960158;28;20056;-73
2021/08/29 06:36:34;;;;;;;3.65;2.97;;;;;;;29.98;38.82;99568.22;4960191;28;20097;-73
2021/08/29 06:39:00;;;;;;;3.15;2.78;;;;;;;30.75;37.23;99564.19;4960349;28;20030;-71
2021/08/29 06:41:26;;;;;;;3.20;2.85;;;;;;;30.07;38.20;99568.00;4959949;28;20027;-73
2021/08/29 06:43:53;;;;;;;3.17;2.75;;;;;;;29.98;38.06;99566.13;4977633;28;20054;-71
2021/08/29 06:46:20;;;;;;;3.67;2.40;;;;;;;29.78;38.76;99569.16;4959893;28;20086;-73
2021/08/29 06:48:45;;;;;;;4.05;2.13;;;;;;;29.82;38.55;99566.03;4960195;28;20035;-71
2021/08/29 06:51:11;;;;;;;3.03;2.35;;;;;;;30.76;37.29;99574.38;4960090;28;20492;-71
2021/08/29 06:53:36;;;;;;;2.63;2.40;;;;;;;31.16;36.47;99571.56;4960128;28;20039;-72
2021/08/29 06:56:02;;;;;;;3.28;2.40;;;;;;;30.45;36.09;99574.50;4960250;28;20035;-72
2021/08/29 06:58:27;;;;;;;2.65;1.92;;;;;;;30.71;36.51;99562.88;4959916;28;20394;-72
2021/08/29 07:00:53;;;;;;;2.65;2.30;;;;;;;30.08;37.45;99572.44;4960157;28;20343;-72
2021/08/29 07:03:18;;;;;;;2.22;2.03;;;;;;;29.98;37.01;99579.69;4959372;28;20367;-72
2021/08/29 07:05:44;;;;;;;2.47;2.20;;;;;;;29.21;39.24;99576.47;4959536;28;20027;-72
2021/08/29 07:08:10;;;;;;;3.88;2.17;;;;;;;29.50;38.82;99569.66;4959589;28;20094;-72
2021/08/29 07:10:35;;;;;;;2.92;2.08;;;;;;;30.17;37.98;99580.88;4959729;28;20031;-71
2021/08/29 07:13:01;;;;;;;3.15;2.17;;;;;;;31.21;36.04;99585.16;4959450;28;20046;-71
2021/08/29 07:15:26;;;;;;;1.77;1.67;;;;;;;31.98;34.83;99582.88;4959222;28;20030;-72
2021/08/29 07:17:52;;;;;;;2.13;1.95;;;;;;;32.30;34.26;99586.19;4959297;28;20057;-72
2021/08/29 07:20:17;;;;;;;3.53;2.25;;;;;;;32.57;33.57;99593.97;4959515;28;20031;-73
2021/08/29 07:22:45;;;;;;;4.53;2.10;;;;;;;33.22;31.87;99598.34;4959154;28;20366;-71
2021/08/29 07:25:11;;;;;;;2.30;2.10;;;;;;;33.00;32.43;99589.84;4976876;28;20425;-71
2021/08/29 07:27:38;;;;;;;5.13;2.08;;;;;;;31.40;35.61;99588.38;4960554;28;20093;-73
2021/08/29 07:30:04;;;;;;;2.95;2.38;;;;;;;30.85;37.10;99604.97;4976866;28;20023;-75
2021/08/29 07:32:30;;;;;;;2.60;2.33;;;;;;;31.74;34.90;99592.78;4959050;28;20481;-73
2021/08/29 07:34:55;;;;;;;5.20;2.88;;;;;;;31.22;35.64;99589.63;4959459;28;20033;-75
2021/08/29 07:37:22;;;;;;;2.83;2.63;;;;;;;30.64;36.96;99594.94;4958941;28;20090;-75
2021/08/29 07:39:49;;;;;;;3.25;2.75;;;;;;;31.07;35.73;99589.09;4959385;28;20373;-76
2021/08/29 07:42:15;;;;;;;2.92;1.90;;;;;;;29.65;38.71;99591.72;4958823;28;20037;-76
2021/08/29 07:44:41;;;;;;;2.05;1.83;;;;;;;30.68;37.03;99596.25;4958214;28;20031;-76
2021/08/29 07:47:06;;;;;;;2.90;2.55;;;;;;;31.41;36.02;99598.56;4958672;28;20372;-77
2021/08/29 07:49:32;;;;;;;2.90;2.67;;;;;;;30.56;37.47;99591.75;4958712;28;20113;-75
2021/08/29 07:51:57;;;;;;;2.53;2.33;;;;;;;29.79;38.59;99590.00;4958942;28;20178;-76
2021/08/29 07:54:23;;;;;;;3.63;2.60;;;;;;;29.02;40.08;99589.53;4958539;28;20442;-77
2021/08/29 07:56:48;;;;;;;4.40;2.47;;;;;;;29.73;38.75;99587.88;4958891;28;20038;-77
2021/08/29 07:59:14;;;;;;;2.95;2.63;;;;;;;30.20;37.67;99590.53;4958539;28;20102;-77
2021/08/29 08:01:40;;;;;;;3.20;2.67;;;;;;;30.29;38.47;99580.94;4958507;28;20034;-75
2021/08/29 08:04:05;;;;;;;3.50;3.20;;;;;;;29.90;38.54;99584.34;4958503;28;20027;-75
2021/08/29 08:06:31;;;;;;;5.82;3.35;;;;;;;29.80;38.73;99591.56;4958358;28;20062;-75
2021/08/29 08:08:57;;;;;;;3.20;2.70;;;;;;;28.73;41.31;99578.28;4958434;28;20047;-77
2021/08/29 08:11:23;;;;;;;3.67;2.75;;;;;;;28.88;41.10;99581.81;4958912;28;20027;-77
2021/08/29 08:13:48;;;;;;;3.90;2.55;;;;;;;29.12;40.65;99585.22;4958368;28;20498;-76
2021/08/29 08:16:14;;;;;;;2.65;2.38;;;;;;;29.10;41.02;99587.81;4958267;28;20114;-77
2021/08/29 08:18:40;;;;;;;3.92;3.15;;;;;;;30.22;38.95;99585.88;4957833;28;20131;-76
2021/08/29 08:21:05;;;;;;;3.17;2.72;;;;;;;31.01;37.25;99589.06;4958180;28;20054;-78
2021/08/29 08:23:31;;;;;;;2.90;2.60;;;;;;;31.81;35.70;99583.69;4958146;28;20066;-75
2021/08/29 08:25:56;;;;;;;3.55;2.40;;;;;;;32.47;34.59;99589.81;4957976;28;20049;-76
2021/08/29 08:28:22;;;;;;;2.33;2.13;;;;;;;33.03;33.50;99594.56;4957918;28;20089;-75
2021/08/29 08:30:48;;;;;;;4.47;2.83;;;;;;;33.16;33.15;99594.72;4958529;28;20038;-76
2021/08/29 08:33:15;;;;;;;2.42;2.22;;;;;;;32.36;34.63;99594.84;4958412;28;20049;-75
2021/08/29 08:35:40;;;;;;;3.35;2.58;;;;;;;31.71;35.54;99599.59;4975344;28;20035;-75
2021/08/29 08:38:06;;;;;;;3.15;2.42;;;;;;;31.21;36.81;99603.19;4958433;28;20093;-75
2021/08/29 08:40:40;;;;;;;4.32;2.47;;;;;;;31.32;35.95;99601.66;4958157;28;20025;-76
2021/08/29 08:43:06;;;;;;;4.13;2.45;;;;;;;30.75;37.45;99601.53;4958304;28;20034;-76
2021/08/29 08:45:34;;;;;;;3.60;2.22;;;;;;;30.36;37.19;99604.22;4975465;28;20031;-75
2021/08/29 08:48:01;;;;;;;4.20;2.35;;;;;;;28.84;39.71;99595.56;4957644;28;20161;-75
2021/08/29 08:50:28;;;;;;;3.97;2.38;;;;;;;28.85;39.45;99594.28;4957991;28;20121;-77
2021/08/29 08:53:00;;;;;;;4.45;2.30;;;;;;;28.09;41.76;99594.31;4957481;28;20073;-76
2021/08/29 08:55:26;;;;;;;3.78;2.30;;;;;;;28.03;41.91;99594.25;4957621;28;20035;-77
2021/08/29 08:57:52;;;;;;;4.35;2.72;;;;;;;27.71;43.00;99590.38;4957590;28;20373;-76
2021/08/29 09:00:18;;;;;;;3.90;2.38;;;;;;;29.28;40.39;99591.63;4957423;28;20035;-76
2021/08/29 09:02:46;;;;;;;2.67;2.22;;;;;;;30.09;38.07;99593.31;4957336;28;20034;-77
2021/08/29 09:05:11;;;;;;;2.55;2.35;;;;;;;29.80;38.82;99591.56;4957458;28;20027;-75
2021/08/29 09:07:37;;;;;;;3.65;2.25;;;;;;;29.70;38.77;99583.16;4957479;28;20129;-76
2021/08/29 09:10:04;;;;;;;2.40;2.20;;;;;;;28.83;40.86;99583.34;4957293;28;20087;-76
2021/08/29 09:12:29;;;;;;;3.70;2.50;;;;;;;29.29;39.36;99584.59;4957277;28;20027;-71
2021/08/29 09:14:57;;;;;;;4.28;2.58;;;;;;;29.39;38.83;99586.78;4957095;28;20041;-73
2021/08/29 09:17:41;;;;;;;4.57;2.40;;;;;;;28.77;40.51;99593.16;4957218;28;20034;-76
2021/08/29 09:20:39;;;;;;;5.30;2.30;;;;;;;28.93;40.09;99583.97;4956885;28;20058;-71
2021/08/29 09:23:06;;;;;;;3.33;2.22;;;;;;;29.22;39.04;99585.84;4956916;28;20469;-75
2021/08/29 09:25:41;;;;;;;2.60;2.08;;;;;;;29.08;38.67;99581.00;4941243;28;20497;-77
2021/08/29 09:28:12;;;;;;;3.10;2.22;;;;;;;29.07;39.13;99585.16;4975243;28;20037;-75
2021/08/29 09:30:43;;;;;;;2.72;2.35;;;;;;;27.97;41.18;99566.88;4974560;28;20110;-75
2021/08/29 09:33:10;;;;;;;4.15;2.28;;;;;;;28.75;40.09;99595.72;4957065;28;20078;-75
2021/08/29 09:35:36;;;;;;;2.53;2.20;;;;;;;29.46;38.64;99591.28;4957141;28;20541;-76
2021/08/29 09:38:05;;;;;;;2.30;2.10;;;;;;;30.30;36.94;99588.25;4957278;28;20050;-76
2021/08/29 09:40:34;;;;;;;3.35;2.30;;;;;;;30.03;36.86;99596.16;4956982;28;20041;-78
2021/08/29 09:43:02;;;;;;;4.72;2.28;;;;;;;30.14;36.78;99584.75;4957294;28;20030;-79
2021/08/29 09:45:32;;;;;;;2.17;1.90;;;;;;;31.66;34.74;99586.00;4957953;28;20373;-73
2021/08/29 09:48:09;;;;;;;2.42;2.17;;;;;;;30.58;35.91;99600.66;4957336;28;20026;-73
2021/08/29 09:50:37;;;;;;;4.55;2.45;;;;;;;30.74;36.21;99591.34;4957016;28;20453;-78
2021/08/29 09:53:06;;;;;;;4.22;2.53;;;;;;;30.23;36.84;99596.03;4956984;28;20065;-80
2021/08/29 09:55:45;;;;;;;6.40;3.47;;;;;;;29.14;38.64;99596.19;4957235;28;20026;-81
2021/08/29 09:58:27;;;;;;;4.45;3.30;;;;;;;27.88;41.37;99593.50;4957357;28;20027;-77
2021/08/29 10:01:09;;;;;;;3.17;2.67;;;;;;;27.80;41.05;99595.16;4957376;28;20193;-83
2021/08/29 10:03:38;;;;;;;3.03;2.58;;;;;;;27.51;41.60;99593.13;4956846;28;20170;-79
2021/08/29 10:06:27;;;;;;;5.68;2.83;;;;;;;27.87;41.07;99591.94;4956843;28;20137;-74
2021/08/29 10:09:00;;;;;;;4.88;2.75;;;;;;;28.54;39.61;99592.88;4961069;28;20023;-76
2021/08/29 10:11:30;;;;;;;3.60;2.85;;;;;;;29.95;36.87;99592.19;4960671;28;20209;-73
2021/08/29 10:14:00;;;;;;;7.95;3.05;;;;;;;29.97;36.98;99598.19;4944567;28;20115;-78
2021/08/29 10:16:27;;;;;;;4.32;3.30;;;;;;;30.67;35.66;99603.28;4960334;28;20035;-75
2021/08/29 10:18:58;;;;;;;4.90;3.00;;;;;;;30.45;35.89;99600.31;4944228;28;20508;-72
2021/08/29 10:21:27;;;;;;;3.33;3.00;;;;;;;29.96;36.98;99599.50;4960618;28;20034;-74
2021/08/29 10:23:58;;;;;;;4.28;2.83;;;;;;;29.57;37.20;99596.34;4960811;28;20051;-74
2021/08/29 10:26:28;;;;;;;4.00;2.33;;;;;;;28.86;38.33;99585.16;4960144;28;20026;-77
2021/08/29 10:29:07;;;;;;;3.10;2.30;;;;;;;28.37;38.74;99594.72;4960445;28;20043;-74
2021/08/29 10:31:52;;;;;;;2.40;2.20;;;;;;;27.91;39.98;99592.47;4959980;28;20023;-73
2021/08/29 10:34:19;;;;;;;4.00;2.75;;;;;;;27.52;39.98;99592.63;4960503;28;20027;-77
2021/08/29 10:36:45;;;;;;;4.28;2.33;;;;;;;27.82;39.97;99595.47;4960605;28;20034;-74
2021/08/29 10:39:11;;;;;;;2.25;2.00;;;;;;;28.19;39.38;99595.78;4960132;28;20034;-78
2021/08/29 10:41:38;;;;;;;3.60;2.50;;;;;;;28.52;39.03;99604.03;4960120;28;20031;-76
2021/08/29 10:44:05;;;;;;;2.70;2.35;;;;;;;28.72;37.83;99594.66;4959838;28;20105;-74
2021/08/29 10:46:34;;;;;;;2.72;2.40;;;;;;;28.78;37.30;99597.59;4959982;28;20019;-76
2021/08/29 10:49:00;;;;;;;3.05;2.40;;;;;;;29.31;36.10;99604.94;4959967;28;20039;-71
2021/08/29 10:51:27;;;;;;;4.10;2.28;;;;;;;29.98;34.09;99596.88;4959759;28;20023;-71
2021/08/29 10:53:58;;;;;;;2.58;2.17;;;;;;;29.88;34.28;99598.38;4959971;28;20039;-80
2021/08/29 10:56:25;;;;;;;4.55;1.95;;;;;;;29.99;33.61;99604.22;4960011;28;20094;-79
2021/08/29 10:59:09;;;;;;;4.38;2.50;;;;;;;30.69;33.35;99597.84;4959826;28;20034;-76
2021/08/29 11:01:41;;;;;;;3.17;2.30;;;;;;;31.50;32.11;99601.19;4960050;28;20073;-76
2021/08/29 11:04:19;;;;;;;7.57;2.57;;;;;;;32.13;31.21;99594.88;4959722;28;20130;-75
2021/08/29 11:06:54;;;;;;;4.50;2.08;;;;;;;32.62;29.90;99597.34;4959857;28;20026;-74
2021/08/29 11:09:29;;;;;;;4.95;2.53;;;;;;;32.25;29.95;99578.34;4959684;28;20121;-73
2021/08/29 11:11:55;;;;;;;2.72;2.17;;;;;;;32.00;30.59;99588.88;4959181;28;20039;-74
2021/08/29 11:14:40;;;;;;;3.90;2.13;;;;;;;31.25;30.70;99592.25;4959169;28;20035;-77
2021/08/29 11:17:14;;;;;;;6.40;2.65;;;;;;;31.22;30.73;99595.38;4959186;28;20057;-72
2021/08/29 11:19:44;;;;;;;4.03;2.50;;;;;;;31.09;30.26;99590.13;4958954;28;20050;-75
2021/08/29 11:22:10;;;;;;;2.55;2.03;;;;;;;31.02;30.70;99602.13;4959226;28;20565;-75
2021/08/29 11:24:49;;;;;;;2.60;2.05;;;;;;;30.49;31.29;99589.38;4959248;28;20121;-76
2021/08/29 11:27:39;;;;;;;4.15;2.40;;;;;;;30.56;31.99;99597.50;4959611;28;20466;-77
2021/08/29 11:30:23;;;;;;;2.65;2.40;;;;;;;30.45;33.28;99597.44;4959151;28;20027;-73
2021/08/29 11:33:00;;;;;;;2.95;2.28;;;;;;;30.27;33.92;99595.81;4959105;28;20478;-73
2021/08/29 11:35:34;;;;;;;3.40;2.28;;;;;;;30.42;34.02;99589.88;4959156;28;20027;-76